Time;durP1;ratioP1;P1;durP2;ratioP2;P2;SDS_P1;SDS_P2;PMS_P1;PMS_P2;Temp;Humidity;BMP_temperature;BMP_pressure;BME280_temperature;BME280_humidity;BME280_pressure;Samples;Min_cycle;Max_cycle;Signal;HPM_P1;HPM_P2
2022/09/01 00:01:20;;;;;;;3.65;1.77;;;;;;;13.97;61.00;100767.00;1784761;78;25595;-67
2022/09/01 00:03:47;;;;;;;4.62;1.70;;;;;;;13.91;60.79;100756.85;1766566;78;27373;-67
2022/09/01 00:06:21;;;;;;;2.55;1.40;;;;;;;13.88;61.13;100762.13;1748804;80;25577;-67
2022/09/01 00:08:46;;;;;;;2.92;1.55;;;;;;;13.82;60.98;100756.03;1784493;78;25591;-67
2022/09/01 00:11:12;;;;;;;2.75;1.12;;;;;;;13.78;61.39;100757.23;1784439;77;27631;-67
2022/09/01 00:13:38;;;;;;;4.30;1.22;;;;;;;13.73;61.36;100757.39;1784711;79;25576;-67
2022/09/01 00:16:05;;;;;;;3.30;1.50;;;;;;;13.68;61.16;100762.20;1784961;78;27317;-67
2022/09/01 00:18:33;;;;;;;2.65;1.30;;;;;;;13.62;61.46;100757.45;1776611;80;25619;-67
2022/09/01 00:21:00;;;;;;;1.55;1.40;;;;;;;13.52;61.48;100755.04;1769815;80;25618;-67
2022/09/01 00:23:27;;;;;;;2.27;1.70;;;;;;;13.43;61.61;100753.67;1775722;79;26062;-67
2022/09/01 00:25:53;;;;;;;2.10;1.20;;;;;;;13.30;61.60;100759.45;1777787;79;25619;-66
2022/09/01 00:28:19;;;;;;;3.47;1.30;;;;;;;13.18;61.88;100757.34;1782902;77;27353;-66
2022/09/01 00:30:46;;;;;;;1.70;1.40;;;;;;;13.08;61.48;100760.34;1765007;80;25401;-67
2022/09/01 00:33:13;;;;;;;1.95;1.60;;;;;;;12.99;62.11;100761.68;1773115;79;25606;-66
2022/09/01 00:35:40;;;;;;;1.30;1.20;;;;;;;12.91;62.35;100761.08;1774497;80;25430;-66
2022/09/01 00:38:06;;;;;;;1.72;1.42;;;;;;;12.84;62.54;100765.60;1776090;79;25552;-66
2022/09/01 00:40:33;;;;;;;1.37;1.27;;;;;;;12.76;62.54;100760.93;1771433;79;28122;-66
2022/09/01 00:43:00;;;;;;;2.02;1.62;;;;;;;12.68;62.39;100755.72;1773125;79;25652;-66
2022/09/01 00:45:26;;;;;;;3.85;2.30;;;;;;;12.63;62.61;100757.74;1768002;79;25548;-67
2022/09/01 00:47:52;;;;;;;2.15;1.60;;;;;;;12.56;63.21;100762.81;1773164;79;25427;-67
2022/09/01 00:50:20;;;;;;;3.12;1.57;;;;;;;12.47;63.12;100760.84;1774753;79;25606;-67
2022/09/01 00:52:51;;;;;;;3.15;1.75;;;;;;;12.43;63.69;100763.13;1740795;80;27353;-67
2022/09/01 00:55:28;;;;;;;3.17;2.12;;;;;;;12.36;63.95;100757.34;1773097;79;25694;-67
2022/09/01 00:57:56;;;;;;;2.65;1.50;;;;;;;12.28;63.95;100758.34;1772618;79;25413;-67
2022/09/01 01:00:27;;;;;;;3.05;1.40;;;;;;;12.22;63.94;100758.20;1765677;79;25551;-67
2022/09/01 01:02:56;;;;;;;2.05;1.65;;;;;;;12.15;64.48;100761.91;1772669;79;25577;-68
2022/09/01 01:05:33;;;;;;;3.27;1.87;;;;;;;12.08;64.59;100757.48;1773312;79;27314;-67
2022/09/01 01:08:03;;;;;;;4.25;1.42;;;;;;;12.01;64.55;100755.75;1769169;79;25506;-67
2022/09/01 01:10:35;;;;;;;3.80;1.20;;;;;;;11.95;64.75;100759.94;1773216;79;25695;-67
2022/09/01 01:13:11;;;;;;;3.60;1.32;;;;;;;11.88;64.68;100750.58;1764127;79;25664;-67
2022/09/01 01:15:42;;;;;;;2.90;1.70;;;;;;;11.81;64.99;100755.07;1772458;79;25315;-67
2022/09/01 01:18:28;;;;;;;2.95;1.87;;;;;;;11.76;64.96;100758.72;1768994;79;27392;-68
2022/09/01 01:24:10;;;;;;;2.50;1.50;;;;;;;11.68;65.35;100759.44;1773661;78;25862;-68
2022/09/01 01:26:38;;;;;;;2.83;1.57;;;;;;;11.65;65.27;100762.75;1749272;80;25653;-68
2022/09/01 01:29:05;;;;;;;3.15;1.22;;;;;;;11.62;65.37;100762.00;1790136;79;25785;-68
2022/09/01 01:31:31;;;;;;;2.05;1.60;;;;;;;11.58;65.34;100761.81;1774481;78;27452;-66
2022/09/01 01:33:58;;;;;;;3.77;1.57;;;;;;;11.55;65.62;100759.70;1774415;78;25737;-66
2022/09/01 01:36:35;;;;;;;2.47;1.45;;;;;;;11.52;65.87;100753.53;1799829;78;25639;-67
2022/09/01 01:39:08;;;;;;;1.70;1.60;;;;;;;11.47;66.14;100760.41;1791334;78;25796;-68
2022/09/01 01:41:39;;;;;;;2.37;1.67;;;;;;;11.42;65.81;100753.74;1791666;78;25708;-66
2022/09/01 01:44:07;;;;;;;3.30;1.50;;;;;;;11.41;66.03;100757.58;1781204;78;27386;-66
2022/09/01 01:46:36;;;;;;;2.22;1.60;;;;;;;11.39;66.35;100757.05;1786603;78;25755;-66
2022/09/01 01:49:03;;;;;;;1.70;1.50;;;;;;;11.34;66.39;100751.75;1777158;78;25761;-66
2022/09/01 01:51:31;;;;;;;2.95;1.70;;;;;;;11.32;66.26;100757.48;1778047;78;26066;-66
2022/09/01 01:54:04;;;;;;;1.70;1.40;;;;;;;11.29;66.72;100749.14;1778637;78;25596;-66
2022/09/01 01:56:27;;;;;;;2.60;1.25;;;;;;;11.24;66.87;100752.78;1773721;78;27385;-66
2022/09/01 01:58:56;;;;;;;2.77;1.65;;;;;;;11.23;66.78;100757.14;1804739;78;25554;-67
2022/09/01 02:01:27;;;;;;;1.60;1.50;;;;;;;11.20;66.92;100753.11;1813597;78;25539;-67
2022/09/01 02:03:56;;;;;;;2.65;1.40;;;;;;;11.16;66.82;100756.19;1822124;78;25600;-66
2022/09/01 02:06:25;;;;;;;3.33;1.40;;;;;;;11.14;67.10;100757.05;1817937;78;25728;-66
2022/09/01 02:08:57;;;;;;;2.20;2.00;;;;;;;11.08;67.05;100749.55;1781076;78;27963;-67
2022/09/01 02:11:25;;;;;;;2.95;1.50;;;;;;;11.03;67.47;100753.71;1810273;77;25623;-67
2022/09/01 02:13:55;;;;;;;2.15;1.47;;;;;;;10.96;67.31;100754.11;1813442;78;25421;-67
2022/09/01 02:16:25;;;;;;;2.25;1.65;;;;;;;10.91;67.33;100752.85;1767879;80;25854;-66
2022/09/01 02:18:52;;;;;;;4.17;1.37;;;;;;;10.88;67.65;100754.01;1819146;78;25533;-67
2022/09/01 02:21:23;;;;;;;2.05;1.47;;;;;;;10.82;67.18;100749.25;1800059;77;27542;-67
2022/09/01 02:24:01;;;;;;;2.33;1.42;;;;;;;10.78;67.68;100744.99;1774584;80;25641;-67
2022/09/01 02:26:37;;;;;;;2.45;1.40;;;;;;;10.75;68.04;100751.00;1769926;79;25396;-67
2022/09/01 02:29:07;;;;;;;3.67;1.95;;;;;;;10.73;68.29;100751.84;1799041;79;25625;-66
2022/09/01 02:31:38;;;;;;;7.53;1.70;;;;;;;10.69;67.96;100748.67;1795973;79;25550;-66
2022/09/01 02:34:09;;;;;;;4.17;1.60;;;;;;;10.64;68.07;100744.16;1810055;79;27389;-67
2022/09/01 02:36:36;;;;;;;2.90;1.60;;;;;;;10.58;68.19;100744.80;1763460;80;25896;-66
2022/09/01 02:39:03;;;;;;;11.12;2.20;;;;;;;10.55;67.65;100748.09;1800235;79;25569;-67
2022/09/01 02:41:33;;;;;;;2.37;1.40;;;;;;;10.53;68.04;100746.80;1808146;79;25381;-66
2022/09/01 02:43:59;;;;;;;3.98;1.50;;;;;;;10.48;68.48;100751.75;1816691;77;25647;-65
2022/09/01 02:46:25;;;;;;;3.35;1.52;;;;;;;10.44;68.51;100756.16;1800772;78;27324;-67
2022/09/01 02:48:53;;;;;;;1.95;1.55;;;;;;;10.41;68.46;100753.48;1807714;79;25649;-67
2022/09/01 02:51:27;;;;;;;5.90;1.30;;;;;;;10.38;68.06;100757.33;1806240;78;25682;-66
2022/09/01 02:53:52;;;;;;;1.87;1.37;;;;;;;10.33;68.17;100760.91;1794403;79;25986;-66
2022/09/01 02:56:22;;;;;;;4.90;1.52;;;;;;;10.30;68.29;100762.84;1806213;79;25439;-66
2022/09/01 02:58:49;;;;;;;3.35;1.47;;;;;;;10.26;67.87;100765.31;1811833;79;29524;-68
2022/09/01 03:01:24;;;;;;;4.60;1.72;;;;;;;10.23;68.12;100761.05;1809550;79;25597;-68
2022/09/01 03:03:54;;;;;;;1.80;1.55;;;;;;;10.18;68.58;100761.12;1816883;79;25732;-66
2022/09/01 03:06:22;;;;;;;2.30;1.65;;;;;;;10.13;68.62;100753.92;1806582;78;25382;-66
2022/09/01 03:08:52;;;;;;;8.35;1.70;;;;;;;10.09;68.88;100757.73;1807027;79;25724;-66
2022/09/01 03:11:18;;;;;;;;;;;;;;;10.04;69.06;100755.67;1796321;79;27362;-66
2022/09/01 03:13:45;;;;;;;2.42;1.55;;;;;;;10.02;69.17;100755.95;1803366;79;25474;-66
2022/09/01 03:16:12;;;;;;;2.22;1.60;;;;;;;10.00;69.30;100756.80;1804955;78;25576;-68
2022/09/01 03:18:39;;;;;;;5.12;1.72;;;;;;;9.99;69.59;100759.24;1782678;79;25490;-69
2022/09/01 03:21:07;;;;;;;3.30;1.80;;;;;;;9.98;69.38;100756.30;1802401;78;25382;-68
2022/09/01 03:23:34;;;;;;;5.20;1.67;;;;;;;9.97;69.11;100761.44;1787688;78;27106;-66
2022/09/01 03:26:01;;;;;;;3.08;2.00;;;;;;;9.96;69.41;100761.20;1789148;79;25704;-66
2022/09/01 03:28:29;;;;;;;2.22;1.55;;;;;;;9.96;69.59;100759.03;1793393;79;25447;-67
2022/09/01 03:30:57;;;;;;;6.03;2.02;;;;;;;9.96;69.42;100767.13;1800522;78;26228;-66
2022/09/01 03:33:26;;;;;;;3.20;1.82;;;;;;;9.96;69.81;100766.61;1809232;77;25788;-68
2022/09/01 03:35:55;;;;;;;2.58;1.67;;;;;;;9.95;69.75;100773.09;1799390;79;27359;-67
2022/09/01 03:38:23;;;;;;;6.17;1.90;;;;;;;9.97;70.17;100767.41;1806513;79;25370;-66
2022/09/01 03:40:57;;;;;;;2.80;1.60;;;;;;;9.97;69.94;100772.25;1809089;79;25537;-66
2022/09/01 03:43:26;;;;;;;4.25;2.10;;;;;;;9.98;70.45;100769.81;1811693;78;25702;-68
2022/09/01 03:45:58;;;;;;;2.60;1.93;;;;;;;10.00;70.40;100774.93;1812273;78;25447;-66
2022/09/01 03:48:27;;;;;;;2.90;2.08;;;;;;;9.99;70.35;100768.70;1812543;78;28053;-66
2022/09/01 03:50:52;;;;;;;3.00;1.65;;;;;;;9.99;70.31;100770.05;1807208;78;25380;-68
2022/09/01 03:53:22;;;;;;;2.20;1.62;;;;;;;9.99;70.28;100766.55;1799629;79;25712;-68
2022/09/01 03:55:49;;;;;;;4.28;1.90;;;;;;;9.99;70.78;100766.00;1795275;79;25587;-67
2022/09/01 03:58:18;;;;;;;2.42;1.67;;;;;;;10.00;70.82;100770.31;1786454;79;25688;-66
2022/09/01 04:00:50;;;;;;;1.72;1.60;;;;;;;10.01;70.65;100767.06;1800174;79;27410;-66
2022/09/01 04:03:21;;;;;;;2.70;1.72;;;;;;;9.98;70.60;100763.62;1811284;79;25602;-67
2022/09/01 04:05:46;;;;;;;2.72;1.87;;;;;;;9.99;70.94;100759.24;1791256;78;25430;-66
2022/09/01 04:08:13;;;;;;;2.08;1.57;;;;;;;9.97;70.69;100760.64;1813384;79;25582;-66
2022/09/01 04:10:49;;;;;;;2.92;1.50;;;;;;;9.98;70.53;100763.06;1811892;78;25451;-66
2022/09/01 04:13:29;;;;;;;1.82;1.70;;;;;;;9.99;70.82;100761.15;1808086;79;27890;-65
2022/09/01 04:15:57;;;;;;;2.80;1.80;;;;;;;10.01;70.90;100759.77;1811937;79;27276;-67
2022/09/01 04:18:25;;;;;;;2.80;1.90;;;;;;;10.01;70.93;100761.66;1796712;79;25792;-67
2022/09/01 04:20:56;;;;;;;2.12;1.70;;;;;;;10.03;71.10;100757.58;1774173;79;25797;-67
2022/09/01 04:23:33;;;;;;;4.95;2.47;;;;;;;10.07;71.30;100764.55;1785387;78;25574;-67
2022/09/01 04:26:11;;;;;;;4.17;2.20;;;;;;;10.08;71.61;100762.11;1807645;78;27349;-67
2022/09/01 04:28:44;;;;;;;3.40;1.72;;;;;;;10.09;71.56;100760.99;1802076;79;25522;-68
2022/09/01 04:31:17;;;;;;;3.77;1.70;;;;;;;10.07;71.50;100756.44;1801484;79;25392;-68
2022/09/01 04:33:51;;;;;;;2.80;1.55;;;;;;;10.13;71.46;100762.03;1801303;79;25685;-67
2022/09/01 04:36:26;;;;;;;2.95;1.87;;;;;;;10.14;71.36;100763.62;1789844;79;25692;-67
2022/09/01 04:38:57;;;;;;;1.82;1.70;;;;;;;10.15;71.50;100760.36;1813362;78;29433;-68
2022/09/01 04:41:29;;;;;;;4.85;2.17;;;;;;;10.18;71.43;100766.00;1781018;79;25429;-66
2022/09/01 04:43:59;;;;;;;6.85;2.02;;;;;;;10.19;71.87;100766.80;1805451;77;25572;-67
2022/09/01 04:46:28;;;;;;;5.33;2.10;;;;;;;10.20;72.15;100771.09;1813702;78;25601;-68
2022/09/01 04:48:56;;;;;;;2.17;1.98;;;;;;;10.24;72.44;100771.56;1816696;78;25407;-68
2022/09/01 04:51:26;;;;;;;6.33;2.15;;;;;;;10.29;72.59;100773.39;1808597;78;28091;-68
2022/09/01 04:53:52;;;;;;;;;;;;;;;10.33;72.77;100766.88;1813472;78;25666;-66
2022/09/01 04:56:22;;;;;;;3.42;2.22;;;;;;;10.38;73.15;100772.99;1818102;78;25488;-67
2022/09/01 04:58:50;;;;;;;4.37;1.90;;;;;;;10.43;72.92;100770.20;1788657;79;25923;-68
2022/09/01 05:01:21;;;;;;;3.83;2.08;;;;;;;10.51;73.27;100770.09;1808916;77;25664;-68
2022/09/01 05:04:00;;;;;;;4.92;2.40;;;;;;;10.58;73.18;100772.41;1809515;78;27357;-66
2022/09/01 05:06:19;;;;;;;9.63;2.27;;;;;;;10.63;73.26;100770.41;1798710;77;25733;-67
2022/09/01 05:08:45;;;;;;;6.17;2.60;;;;;;;10.70;73.54;100770.58;1803018;78;25555;-67
2022/09/01 05:11:16;;;;;;;7.33;2.20;;;;;;;10.76;73.72;100770.73;1806237;78;25425;-67
2022/09/01 05:13:44;;;;;;;9.13;2.35;;;;;;;10.82;73.76;100766.28;1820406;78;25426;-67
2022/09/01 05:16:14;;;;;;;8.75;3.42;;;;;;;10.89;73.77;100767.24;1817497;77;27309;-67
2022/09/01 05:18:46;;;;;;;9.33;2.22;;;;;;;10.98;73.75;100767.34;1802109;79;25417;-67
2022/09/01 05:21:16;;;;;;;8.28;2.40;;;;;;;11.06;73.90;100765.86;1812662;78;25722;-67
2022/09/01 05:23:45;;;;;;;8.33;3.42;;;;;;;11.16;73.90;100768.37;1815511;78;25636;-67
2022/09/01 05:26:16;;;;;;;7.10;2.60;;;;;;;11.25;74.04;100765.75;1825021;77;25587;-66
2022/09/01 05:28:47;;;;;;;5.85;2.27;;;;;;;11.34;74.11;100766.64;1774521;80;27305;-67
2022/09/01 05:31:18;;;;;;;2.42;2.12;;;;;;;11.45;74.22;100774.81;1773230;79;25655;-67
2022/09/01 05:33:44;;;;;;;6.30;2.50;;;;;;;11.56;74.30;100768.09;1810144;77;25474;-67
2022/09/01 05:36:12;;;;;;;6.75;1.87;;;;;;;11.67;74.49;100771.37;1813157;78;25520;-67
2022/09/01 05:38:41;;;;;;;3.30;2.08;;;;;;;11.80;74.44;100772.45;1788880;78;25575;-67
2022/09/01 05:41:13;;;;;;;7.03;2.35;;;;;;;11.93;74.36;100768.12;1789137;78;27363;-67
2022/09/01 05:43:38;;;;;;;7.12;2.22;;;;;;;12.06;74.45;100767.84;1791450;79;25558;-67
2022/09/01 05:46:07;;;;;;;2.33;1.98;;;;;;;12.20;74.57;100773.99;1797005;79;30292;-68
2022/09/01 05:48:38;;;;;;;;;;;;;;;12.32;74.50;100768.80;1797702;77;27545;-67
2022/09/01 05:51:07;;;;;;;4.45;1.80;;;;;;;12.49;74.69;100776.82;1778026;80;25619;-67
2022/09/01 05:53:33;;;;;;;4.72;1.85;;;;;;;12.62;74.35;100778.66;1760711;79;28026;-68
2022/09/01 05:56:05;;;;;;;6.33;2.20;;;;;;;12.78;74.27;100768.20;1794864;78;25591;-63
2022/09/01 05:58:33;;;;;;;4.85;1.92;;;;;;;12.94;73.99;100778.11;1812640;78;25744;-63
2022/09/01 06:01:00;;;;;;;16.65;2.17;;;;;;;13.11;73.89;100770.59;1807472;77;26070;-64
2022/09/01 06:03:27;;;;;;;7.78;2.05;;;;;;;13.28;73.58;100775.28;1797833;77;25653;-63
2022/09/01 06:05:56;;;;;;;9.73;2.05;;;;;;;13.45;73.42;100765.84;1796272;79;27326;-63
2022/09/01 06:08:27;;;;;;;5.35;1.80;;;;;;;13.63;72.72;100769.37;1786460;78;25710;-63
2022/09/01 06:10:53;;;;;;;5.62;1.77;;;;;;;13.85;72.64;100766.28;1791745;78;25687;-62
2022/09/01 06:13:20;;;;;;;7.35;2.00;;;;;;;14.07;72.16;100762.59;1817729;77;25758;-63
2022/09/01 06:15:48;;;;;;;5.15;1.20;;;;;;;14.32;72.52;100764.23;1830756;76;25444;-63
2022/09/01 06:18:20;;;;;;;7.42;1.67;;;;;;;14.55;71.60;100765.64;1820310;77;27299;-62
2022/09/01 06:20:48;;;;;;;9.95;1.47;;;;;;;14.80;71.60;100771.38;1817849;77;25743;-68
2022/09/01 06:23:17;;;;;;;4.50;1.25;;;;;;;15.07;70.83;100769.36;1817267;77;25656;-66
2022/09/01 06:25:46;;;;;;;7.70;1.50;;;;;;;15.30;70.69;100765.20;1823618;77;25406;-63
2022/09/01 06:28:20;;;;;;;8.23;1.92;;;;;;;15.55;69.78;100772.78;1825575;76;25729;-63
2022/09/01 06:30:47;;;;;;;10.72;1.37;;;;;;;15.77;69.20;100770.33;1831685;77;27943;-63
2022/09/01 06:33:14;;;;;;;3.52;1.20;;;;;;;16.05;68.95;100771.36;1822875;78;25656;-63
2022/09/01 06:35:43;;;;;;;7.03;1.37;;;;;;;16.37;68.70;100773.66;1818624;78;25706;-63
2022/09/01 06:38:12;;;;;;;4.53;0.90;;;;;;;16.66;67.65;100773.28;1812791;78;26022;-64
2022/09/01 06:40:40;;;;;;;7.25;1.17;;;;;;;16.97;66.75;100769.50;1825353;78;25295;-63
2022/09/01 06:43:10;;;;;;;5.70;1.17;;;;;;;17.26;65.47;100776.44;1821843;78;29459;-63
2022/09/01 06:45:53;;;;;;;6.50;1.12;;;;;;;17.58;65.24;100782.89;1813465;78;25614;-64
2022/09/01 06:48:17;;;;;;;5.80;1.10;;;;;;;17.90;64.42;100786.61;1809939;78;25783;-64
2022/09/01 06:50:44;;;;;;;4.17;0.62;;;;;;;18.26;63.62;100783.52;1816654;78;25515;-64
2022/09/01 06:53:17;;;;;;;3.83;1.00;;;;;;;18.61;62.42;100784.81;1825017;78;25451;-64
2022/09/01 06:55:40;;;;;;;3.12;0.80;;;;;;;19.33;61.37;100785.25;1823316;78;27320;-64
2022/09/01 06:58:10;;;;;;;5.70;0.93;;;;;;;19.33;61.37;100785.25;1806163;78;25617;-64
2022/09/01 07:00:41;;;;;;;2.98;0.62;;;;;;;19.58;59.46;100784.42;1821156;78;25488;-64
2022/09/01 07:03:12;;;;;;;2.85;0.60;;;;;;;19.87;58.87;100777.66;1795725;78;25489;-64
2022/09/01 07:05:42;;;;;;;13.15;0.90;;;;;;;20.19;58.20;100781.60;1810323;78;25634;-64
2022/09/01 07:08:16;;;;;;;4.33;0.70;;;;;;;20.47;57.19;100789.61;1774711;78;28030;-64
2022/09/01 07:10:46;;;;;;;4.22;0.80;;;;;;;20.70;56.31;100779.23;1812932;78;25413;-64
2022/09/01 07:13:24;;;;;;;3.85;1.00;;;;;;;20.95;55.79;100786.53;1819763;78;25482;-63
2022/09/01 07:15:54;;;;;;;4.00;0.80;;;;;;;21.17;54.94;100778.05;1811536;78;26379;-63
2022/09/01 07:18:24;;;;;;;4.12;0.82;;;;;;;21.29;54.12;100779.80;1819565;78;25635;-63
2022/09/01 07:20:52;;;;;;;3.17;0.85;;;;;;;21.50;54.21;100786.22;1819559;78;27382;-63
2022/09/01 07:23:20;;;;;;;1.82;0.60;;;;;;;21.76;53.73;100790.91;1830791;78;25404;-63
2022/09/01 07:25:57;;;;;;;3.90;1.10;;;;;;;22.10;53.09;100781.86;1835865;78;25652;-63
2022/09/01 07:28:17;;;;;;;6.72;1.00;;;;;;;22.43;52.88;100780.30;1835424;78;26310;-63
2022/09/01 07:30:49;;;;;;;6.70;1.20;;;;;;;22.75;51.94;100779.23;1825656;76;25663;-63
2022/09/01 07:33:22;;;;;;;2.80;0.75;;;;;;;23.05;51.27;100785.17;1806277;78;27523;-63
2022/09/01 07:35:48;;;;;;;2.58;1.07;;;;;;;23.30;50.61;100776.52;1794824;77;25601;-63
2022/09/01 07:38:17;;;;;;;3.37;0.80;;;;;;;23.63;49.77;100777.52;1818526;78;25558;-63
2022/09/01 07:40:43;;;;;;;3.70;0.80;;;;;;;23.88;48.89;100778.23;1820174;77;25635;-63
2022/09/01 07:43:23;;;;;;;2.37;0.75;;;;;;;24.14;48.02;100783.25;1781593;78;25499;-63
2022/09/01 07:45:58;;;;;;;2.00;0.60;;;;;;;24.29;47.33;100776.59;1778263;80;27314;-63
2022/09/01 07:48:24;;;;;;;2.55;1.10;;;;;;;24.54;46.87;100781.39;1824190;78;25401;-63
2022/09/01 07:50:55;;;;;;;1.47;1.00;;;;;;;24.86;46.57;100779.25;1819078;78;25585;-63
2022/09/01 07:53:26;;;;;;;1.17;0.50;;;;;;;25.27;45.59;100774.12;1826114;78;25705;-63
2022/09/01 07:55:55;;;;;;;4.72;0.80;;;;;;;25.28;43.77;100780.44;1826354;78;25746;-63
2022/09/01 07:58:26;;;;;;;2.12;0.55;;;;;;;25.24;43.12;100772.71;1810070;77;27954;-63
2022/09/01 08:00:54;;;;;;;2.65;0.70;;;;;;;25.04;42.67;100780.03;1804526;78;25437;-63
2022/09/01 08:03:24;;;;;;;3.45;0.47;;;;;;;24.90;42.55;100780.84;1817146;78;25534;-64
2022/09/01 08:05:56;;;;;;;1.05;0.40;;;;;;;24.73;42.78;100783.02;1812849;78;25672;-64
2022/09/01 08:08:20;;;;;;;1.25;0.53;;;;;;;24.62;42.58;100783.02;1817125;77;25623;-65
2022/09/01 08:10:47;;;;;;;2.77;0.70;;;;;;;24.46;42.29;100788.08;1818479;78;27425;-63
2022/09/01 08:13:15;;;;;;;1.98;0.50;;;;;;;24.35;42.83;100785.31;1821916;77;25522;-62
2022/09/01 08:15:42;;;;;;;2.50;0.95;;;;;;;24.44;42.56;100782.94;1817124;78;25671;-63
2022/09/01 08:18:09;;;;;;;5.15;2.65;;;;;;;24.42;43.08;100780.56;1817825;78;25757;-63
2022/09/01 08:20:44;;;;;;;1.55;0.60;;;;;;;24.44;42.11;100778.80;1780725;80;25455;-63
2022/09/01 08:23:07;;;;;;;1.85;0.78;;;;;;;24.34;41.91;100772.66;1782388;78;27417;-63
2022/09/01 08:25:36;;;;;;;3.80;1.30;;;;;;;24.49;42.32;100777.03;1807979;77;25653;-63
2022/09/01 08:28:04;;;;;;;1.22;0.70;;;;;;;24.61;41.05;100779.44;1807049;78;25611;-67
2022/09/01 08:30:31;;;;;;;3.47;0.57;;;;;;;24.36;41.08;100777.98;1794973;78;25904;-67
2022/09/01 08:33:00;;;;;;;2.45;1.55;;;;;;;24.34;40.79;100772.66;1792896;78;25647;-66
2022/09/01 08:35:28;;;;;;;1.65;0.42;;;;;;;24.13;40.45;100784.45;1777865;78;27912;-67
2022/09/01 08:37:56;;;;;;;6.08;0.50;;;;;;;23.88;40.36;100780.21;1785513;79;25399;-68
2022/09/01 08:40:24;;;;;;;0.40;0.40;;;;;;;23.60;40.64;100781.05;1778354;78;25775;-68
2022/09/01 08:43:05;;;;;;;2.25;0.80;;;;;;;23.37;40.67;100785.43;1782281;78;25849;-66
2022/09/01 08:45:52;;;;;;;1.72;1.02;;;;;;;23.72;41.92;100780.48;1788283;78;26341;-67
2022/09/01 08:48:40;;;;;;;2.40;0.80;;;;;;;24.38;42.04;100776.20;1757638;80;27263;-66
2022/09/01 08:51:35;;;;;;;2.10;0.90;;;;;;;24.94;40.85;100769.19;1748049;79;25645;-66
2022/09/01 08:54:32;;;;;;;5.00;0.95;;;;;;;25.29;40.79;100765.42;1783578;80;25716;-66
2022/09/01 08:57:06;;;;;;;3.80;0.78;;;;;;;25.39;39.90;100768.76;1810307;78;25639;-67
2022/09/01 08:59:32;;;;;;;3.60;0.57;;;;;;;25.39;39.26;100772.09;1815709;77;25816;-66
2022/09/01 09:02:34;;;;;;;1.85;0.75;;;;;;;25.07;38.52;100766.80;1814792;77;27320;-65
2022/09/01 09:05:30;;;;;;;0.45;0.45;;;;;;;25.01;39.46;100764.82;1838742;77;25618;-66
2022/09/01 09:08:23;;;;;;;1.87;0.40;;;;;;;25.24;38.43;100765.19;1799519;78;25669;-65
2022/09/01 09:11:17;;;;;;;1.92;0.33;;;;;;;25.67;38.98;100761.55;1826141;77;25615;-66
2022/09/01 09:14:29;;;;;;;2.15;0.40;;;;;;;26.47;38.20;100756.58;1800879;78;25681;-67
2022/09/01 09:16:56;;;;;;;0.30;0.30;;;;;;;27.02;37.78;100745.27;1813656;78;27315;-66
2022/09/01 09:19:31;;;;;;;3.08;0.57;;;;;;;27.63;36.51;100753.56;1814414;78;25390;-66
2022/09/01 09:22:01;;;;;;;3.40;0.40;;;;;;;28.07;36.18;100752.44;1807639;78;25698;-66
2022/09/01 09:24:48;;;;;;;1.22;0.70;;;;;;;28.37;35.29;100753.61;1806207;77;25593;-66
2022/09/01 09:27:26;;;;;;;0.85;0.35;;;;;;;28.68;34.70;100748.77;1771636;79;25666;-66
2022/09/01 09:30:20;;;;;;;0.30;0.17;;;;;;;28.98;33.39;100746.47;1792745;79;27278;-67
2022/09/01 09:33:03;;;;;;;1.15;0.70;;;;;;;29.18;32.87;100738.15;1812037;77;25652;-68
2022/09/01 09:35:35;;;;;;;1.07;0.40;;;;;;;29.22;32.30;100740.28;1812002;78;25797;-66
2022/09/01 09:38:21;;;;;;;2.02;1.85;;;;;;;29.14;32.28;100741.59;1825045;77;25794;-66
2022/09/01 09:41:10;;;;;;;2.30;0.40;;;;;;;29.50;32.33;100737.36;1823819;78;25724;-67
2022/09/01 09:43:59;;;;;;;0.93;0.57;;;;;;;29.50;31.77;100739.53;1821114;78;27322;-68
2022/09/01 09:46:34;;;;;;;2.12;0.47;;;;;;;29.76;31.86;100737.84;1798518;78;25745;-68
2022/09/01 09:49:27;;;;;;;2.22;0.30;;;;;;;29.80;30.96;100738.55;1831782;77;25668;-68
2022/09/01 09:52:14;;;;;;;2.65;0.53;;;;;;;29.86;30.00;100738.03;1828352;78;26386;-66
2022/09/01 09:55:04;;;;;;;0.20;0.13;;;;;;;30.05;29.86;100738.59;1825376;78;25709;-67
2022/09/01 09:57:31;;;;;;;0.10;0.10;;;;;;;30.24;29.24;100740.36;1822378;78;27324;-67
2022/09/01 10:00:09;;;;;;;0.75;0.28;;;;;;;30.52;29.15;100747.30;1827203;77;26331;-67
2022/09/01 10:02:42;;;;;;;0.53;0.20;;;;;;;30.76;28.48;100734.56;1830804;78;25701;-66
2022/09/01 10:05:50;;;;;;;0.95;0.40;;;;;;;30.95;28.13;100731.50;1828858;78;25702;-67
2022/09/01 10:08:43;;;;;;;1.17;0.28;;;;;;;31.33;28.36;100736.45;1674597;84;25723;-65
2022/09/01 10:11:07;;;;;;;1.40;0.85;;;;;;;31.66;27.87;100730.14;1674179;84;27541;-67
2022/09/01 10:13:35;;;;;;;0.62;0.30;;;;;;;32.08;27.90;100725.11;1674091;85;25670;-65
2022/09/01 10:16:10;;;;;;;0.40;0.20;;;;;;;32.12;27.19;100726.56;1679012;83;25511;-65
2022/09/01 10:18:43;;;;;;;0.30;0.30;;;;;;;31.81;26.53;100727.71;1685427;83;26711;-66
2022/09/01 10:21:20;;;;;;;1.60;0.37;;;;;;;31.48;26.58;100718.05;1696961;83;25837;-65
2022/09/01 10:23:46;;;;;;;0.65;0.23;;;;;;;31.71;26.89;100718.41;1701018;83;27417;-66
2022/09/01 10:26:27;;;;;;;0.62;0.40;;;;;;;32.34;25.91;100721.69;1693921;83;26603;-66
2022/09/01 10:29:11;;;;;;;1.77;0.20;;;;;;;32.34;25.91;100721.69;1688816;83;25795;-68
2022/09/01 10:31:40;;;;;;;2.47;0.30;;;;;;;31.75;26.08;100728.08;1699333;83;25703;-67
2022/09/01 10:34:12;;;;;;;0.55;0.30;;;;;;;31.26;25.88;100720.66;1679099;84;25485;-66
2022/09/01 10:36:41;;;;;;;2.17;0.30;;;;;;;30.83;26.24;100725.99;1678960;84;27532;-65
2022/09/01 10:39:13;;;;;;;0.75;0.42;;;;;;;30.79;26.58;100726.70;1679384;84;25486;-66
2022/09/01 10:42:06;;;;;;;0.25;0.17;;;;;;;30.49;26.87;100728.02;1684816;84;25574;-66
2022/09/01 10:44:32;;;;;;;1.35;0.40;;;;;;;30.68;26.67;100718.00;1720321;81;25634;-67
2022/09/01 10:47:13;;;;;;;3.25;0.23;;;;;;;30.93;27.00;100718.56;1730141;82;25683;-66
2022/09/01 10:49:51;;;;;;;1.40;0.78;;;;;;;31.10;26.75;100724.30;1772196;79;27289;-65
2022/09/01 10:52:44;;;;;;;1.45;0.90;;;;;;;31.32;26.33;100718.91;1771351;79;25653;-67
2022/09/01 10:55:26;;;;;;;1.85;0.30;;;;;;;31.39;26.57;100714.50;1677437;83;25776;-67
2022/09/01 10:58:21;;;;;;;1.87;0.47;;;;;;;31.94;26.37;100726.30;1654487;85;25817;-68
2022/09/01 11:00:51;;;;;;;0.23;0.20;;;;;;;32.42;25.56;100720.23;1668224;84;25684;-67
2022/09/01 11:03:23;;;;;;;1.05;0.30;;;;;;;32.61;25.07;100717.63;1683593;83;27327;-68
2022/09/01 11:06:07;;;;;;;1.02;0.40;;;;;;;32.37;24.78;100716.59;1674962;83;25428;-67
2022/09/01 11:08:47;;;;;;;4.22;0.40;;;;;;;31.70;24.52;100716.05;1668819;84;25808;-66
2022/09/01 11:11:49;;;;;;;1.32;0.40;;;;;;;30.82;24.73;100717.44;1672537;84;26089;-68
2022/09/01 11:14:25;;;;;;;1.95;0.40;;;;;;;30.41;25.67;100716.08;1670484;83;25700;-69
2022/09/01 11:17:15;;;;;;;1.62;0.50;;;;;;;30.61;26.33;100714.59;1678780;83;27658;-68
2022/09/01 11:20:05;;;;;;;1.62;0.20;;;;;;;30.70;26.07;100717.56;1679692;84;26344;-67
2022/09/01 11:22:35;;;;;;;0.25;0.20;;;;;;;30.94;25.68;100709.78;1670326;83;25729;-68
2022/09/01 11:25:36;;;;;;;1.87;0.33;;;;;;;31.32;25.64;100707.73;1674585;84;25779;-68
2022/09/01 11:28:18;;;;;;;1.07;0.30;;;;;;;31.41;25.04;100716.23;1650822;84;25586;-69
2022/09/01 11:31:08;;;;;;;1.00;0.45;;;;;;;30.83;24.21;100713.43;1713960;79;27405;-69
2022/09/01 11:34:02;;;;;;;1.37;0.30;;;;;;;30.21;24.42;100711.34;1755778;80;25667;-68
2022/09/01 11:36:50;;;;;;;1.17;0.30;;;;;;;29.63;24.87;100709.03;1778740;80;25653;-69
2022/09/01 11:39:21;;;;;;;2.65;0.50;;;;;;;28.95;25.19;100715.30;1757535;79;26489;-69
2022/09/01 11:42:02;;;;;;;0.85;0.40;;;;;;;28.99;26.36;100715.23;1780839;79;25471;-68
2022/09/01 11:44:56;;;;;;;2.22;0.30;;;;;;;29.34;25.74;100716.58;1778921;79;27298;-68
2022/09/01 11:47:28;;;;;;;0.93;0.35;;;;;;;29.13;25.50;100721.91;1787525;79;25713;-68
2022/09/01 11:50:02;;;;;;;2.27;0.60;;;;;;;28.64;25.72;100727.16;1772558;80;25530;-68
2022/09/01 11:52:34;;;;;;;1.07;0.40;;;;;;;28.16;25.93;100727.67;1781362;79;25809;-68
2022/09/01 11:55:05;;;;;;;2.42;0.60;;;;;;;27.78;26.37;100731.95;1755075;80;25725;-67